メインページ
METAR-TAF:

METAR-TAF

空港 :

コタキナバル国際空港

コタキナバル, マレーシア

緯度: 05-56N, 経度: 116-03E, 海抜: 3m

現時点の気象観測

当レポートは42分前の05:30(UTC)に作成
北西の風 7kt、西/南西からの間で変化する
気温 34°C
湿度 63%
気圧 1009 hPa
視程10km以上
高度1500ftの雲はほとんどない

METAR: WBKK 040530Z 31007KT 240V010 9999 FEW015 34/26 Q1009 NOSIG

時間: 14:12 (06:12 UTC)

予報

当レポートは1時間12分前の05:00(UTC)に作成
予報は04日の 06時(UTC)から 05日の 06時(UTC)まで有効
北/北西の風 5kt
視程10km以上
高度1500ftの雲はほとんどない
04日の 13時(UTC)から 04日の 15時(UTC)まで徐々に
東/南東の風 5kt

TAF: WBKK 040500Z 0406/0506 33005KT 9999 FEW015 BECMG 0413/0415 12005KT

4,000以上の空港の気象観測と天気予報(METAR報とTAF報)

利用可能な観測所は地図上に黄色い丸と赤い丸で示す。

丸の上にカーソルを重ねると観測所名を参照できる。

次にクリックすると気象観測と天気予報を参照できる。

マップの切り替え:黒色「×」印の緑ボタンをクリックして拡大、「-」印の緑ボタンをクリックして縮小、緑色の三角印をクリックして隣りの地図に切り替え


METAR-TAF: